createdAt,value
2022-09-28T00:00:47.006Z,3.45
2022-09-28T00:04:50.002Z,7.40
2022-09-28T00:08:52.928Z,5.80
2022-09-28T00:12:57.646Z,3.97
2022-09-28T00:17:00.691Z,8.80
2022-09-28T00:21:11.773Z,6.78
2022-09-28T00:25:16.939Z,6.57
2022-09-28T00:29:34.562Z,4.60
2022-09-28T00:33:46.674Z,3.70
2022-09-28T00:37:50.542Z,5.50
2022-09-28T00:41:54.374Z,4.40
2022-09-28T00:50:31.167Z,3.08
2022-09-28T00:54:37.207Z,5.40
2022-09-28T00:58:46.871Z,4.38
2022-09-28T01:02:50.212Z,3.83
2022-09-28T01:06:53.602Z,4.93
2022-09-28T01:10:59.392Z,5.30
2022-09-28T01:15:05.691Z,4.40
2022-09-28T01:19:40.010Z,3.70
2022-09-28T01:24:22.266Z,4.53
2022-09-28T01:28:28.769Z,3.70
2022-09-28T01:32:51.216Z,4.03
2022-09-28T01:36:58.969Z,4.95
2022-09-28T01:41:04.416Z,4.75
2022-09-28T01:45:14.603Z,4.93
2022-09-28T01:49:27.403Z,4.00
2022-09-28T01:53:43.200Z,3.47
2022-09-28T01:58:01.952Z,3.05
2022-09-28T02:02:13.203Z,4.75
2022-09-28T02:06:22.935Z,6.57
2022-09-28T02:10:33.572Z,5.30
2022-09-28T02:14:40.846Z,7.68
2022-09-28T02:18:45.298Z,7.75
2022-09-28T02:22:53.483Z,8.25
2022-09-28T02:26:59.642Z,8.05
2022-09-28T02:31:07.569Z,7.30
2022-09-28T02:35:13.382Z,6.32
2022-09-28T02:39:18.169Z,5.13
2022-09-28T02:43:31.271Z,5.80
2022-09-28T02:48:10.093Z,7.07
2022-09-28T02:52:43.329Z,9.45
2022-09-28T02:57:24.218Z,6.20
2022-09-28T03:01:35.487Z,5.45
2022-09-28T03:05:41.484Z,6.93
2022-09-28T03:09:56.502Z,5.93
2022-09-28T03:14:00.403Z,7.05
2022-09-28T03:18:13.143Z,8.43
2022-09-28T03:22:17.624Z,6.32
2022-09-28T03:26:24.066Z,6.22
2022-09-28T03:30:27.024Z,5.32
2022-09-28T03:34:33.266Z,4.20
2022-09-28T03:38:36.225Z,4.72
2022-09-28T03:42:39.162Z,4.05
2022-09-28T03:46:42.226Z,4.55
2022-09-28T03:50:45.519Z,4.93
2022-09-28T03:54:49.359Z,5.15
2022-09-28T03:58:53.536Z,5.00
2022-09-28T04:02:56.419Z,5.03
2022-09-28T04:06:59.767Z,4.70
2022-09-28T04:11:02.655Z,4.65
2022-09-28T04:15:06.401Z,4.38
2022-09-28T04:19:09.879Z,4.53
2022-09-28T04:23:47.140Z,5.15
2022-09-28T04:28:09.237Z,4.85
2022-09-28T04:32:21.521Z,4.78
2022-09-28T04:36:25.862Z,4.18
2022-09-28T04:40:37.085Z,4.10
2022-09-28T04:44:40.355Z,4.50
2022-09-28T04:48:47.789Z,4.82
2022-09-28T04:53:10.431Z,4.05
2022-09-28T04:57:13.499Z,4.32
2022-09-28T05:01:19.932Z,3.97
2022-09-28T05:05:57.697Z,3.42
2022-09-28T05:14:39.285Z,4.07
2022-09-28T05:18:47.180Z,4.18
2022-09-28T05:22:52.206Z,3.78
2022-09-28T05:26:55.148Z,4.10
2022-09-28T05:31:05.740Z,3.50
2022-09-28T05:39:44.651Z,4.13
2022-09-28T05:43:48.448Z,3.47
2022-09-28T05:47:54.057Z,3.70
2022-09-28T05:52:02.323Z,4.07
2022-09-28T05:56:06.461Z,3.40
2022-09-28T06:00:14.337Z,3.63
2022-09-28T06:13:22.275Z,3.45
2022-09-28T06:17:29.477Z,4.07
2022-09-28T06:30:38.825Z,3.88
2022-09-28T06:39:02.874Z,3.85
2022-09-28T07:05:50.365Z,3.72
2022-09-28T07:23:50.327Z,4.10
2022-09-28T08:03:59.948Z,3.00
2022-09-28T08:08:11.099Z,3.40
2022-09-28T08:21:46.970Z,3.75
2022-09-28T08:25:54.297Z,3.67
2022-09-28T08:29:59.499Z,3.67
2022-09-28T08:39:34.967Z,4.70
2022-09-28T08:44:14.358Z,4.53
2022-09-28T08:57:57.619Z,4.07
2022-09-28T09:06:45.087Z,3.60
2022-09-28T09:21:18.176Z,4.30
2022-09-28T09:29:50.898Z,4.13
2022-09-28T09:34:15.098Z,3.95
2022-09-28T09:38:27.970Z,3.22
2022-09-28T09:43:21.207Z,3.22
2022-09-28T09:47:45.706Z,5.63
2022-09-28T09:52:24.159Z,5.25
2022-09-28T09:56:46.505Z,5.60
2022-09-28T10:00:58.422Z,5.97
2022-09-28T10:09:35.355Z,6.03
2022-09-28T10:13:55.421Z,5.50
2022-09-28T10:18:21.662Z,6.15
2022-09-28T10:23:08.033Z,5.82
2022-09-28T10:27:32.359Z,6.38
2022-09-28T10:31:52.695Z,6.68
2022-09-28T10:36:06.768Z,4.63
2022-09-28T10:40:45.549Z,5.07
2022-09-28T10:44:57.543Z,5.72
2022-09-28T10:49:20.004Z,5.50
2022-09-28T10:53:34.563Z,6.07
2022-09-28T11:03:27.174Z,5.68
2022-09-28T11:07:44.314Z,6.53
2022-09-28T11:11:49.912Z,6.35
2022-09-28T11:15:54.003Z,6.93
2022-09-28T11:20:43.658Z,5.97
2022-09-28T11:25:12.647Z,6.70
2022-09-28T11:29:36.790Z,7.57
2022-09-28T11:34:31.418Z,8.10
2022-09-28T11:39:03.797Z,8.07
2022-09-28T11:48:29.142Z,7.28
2022-09-28T11:52:44.555Z,7.32
2022-09-28T11:56:58.248Z,5.38
2022-09-28T12:01:37.398Z,5.07
2022-09-28T12:06:37.086Z,5.27
2022-09-28T12:11:10.899Z,5.07
2022-09-28T12:20:50.574Z,4.88
2022-09-28T12:24:58.375Z,5.18
2022-09-28T12:29:13.684Z,4.93
2022-09-28T12:33:17.222Z,5.82
2022-09-28T12:37:28.445Z,6.22
2022-09-28T12:41:56.195Z,6.93
2022-09-28T12:46:33.131Z,6.30
2022-09-28T12:50:49.926Z,6.97
2022-09-28T12:55:06.611Z,8.95
2022-09-28T12:59:31.833Z,8.73
2022-09-28T13:04:03.414Z,7.32
2022-09-28T13:08:42.275Z,10.48
2022-09-28T13:13:18.331Z,9.27
2022-09-28T13:17:56.985Z,9.40
2022-09-28T13:22:43.553Z,10.55
2022-09-28T13:26:50.124Z,9.25
2022-09-28T13:30:55.083Z,8.13
2022-09-28T13:35:05.605Z,9.13
2022-09-28T13:39:40.018Z,9.38
2022-09-28T13:44:18.008Z,8.70
2022-09-28T13:48:27.769Z,7.38
2022-09-28T13:52:57.636Z,8.32
2022-09-28T13:57:37.413Z,9.63
2022-09-28T14:01:48.675Z,7.97
2022-09-28T14:06:24.228Z,8.02
2022-09-28T14:10:52.313Z,6.45
2022-09-28T14:19:37.438Z,5.53
2022-09-28T14:23:59.021Z,3.58
2022-09-28T14:28:38.972Z,4.05
2022-09-28T14:32:49.530Z,3.33
2022-09-28T14:37:11.213Z,4.35
2022-09-28T14:41:18.183Z,3.78
2022-09-28T14:45:35.623Z,3.83
2022-09-28T14:50:03.322Z,4.47
2022-09-28T14:54:26.477Z,4.15
2022-09-28T14:58:41.688Z,4.50
2022-09-28T15:02:50.333Z,4.07
2022-09-28T15:06:53.465Z,4.18
2022-09-28T15:10:58.901Z,4.20
2022-09-28T15:15:08.825Z,4.18
2022-09-28T15:28:19.796Z,4.13
2022-09-28T15:32:27.686Z,4.30
2022-09-28T15:36:51.564Z,4.10
2022-09-28T15:40:58.865Z,4.10
2022-09-28T15:45:29.178Z,4.47
2022-09-28T15:54:25.189Z,4.65
2022-09-28T16:08:28.820Z,4.10
2022-09-28T16:12:39.422Z,4.43
2022-09-28T16:16:52.398Z,3.75
2022-09-28T16:21:03.301Z,4.68
2022-09-28T16:25:17.593Z,4.20
2022-09-28T16:29:42.842Z,4.85
2022-09-28T16:38:34.817Z,4.15
2022-09-28T16:42:49.129Z,4.05
2022-09-28T16:46:58.311Z,4.53
2022-09-28T16:51:01.996Z,5.22
2022-09-28T16:59:44.191Z,4.68
2022-09-28T17:03:49.127Z,4.10
2022-09-28T17:08:03.748Z,4.72
2022-09-28T17:12:17.626Z,4.25
2022-09-28T17:16:42.958Z,3.58
2022-09-28T17:20:50.807Z,3.80
2022-09-28T17:24:55.070Z,4.68
2022-09-28T17:28:59.635Z,6.60
2022-09-28T17:33:06.391Z,7.63
2022-09-28T17:37:14.800Z,6.10
2022-09-28T17:41:21.881Z,6.38
2022-09-28T17:45:28.752Z,6.82
2022-09-28T17:49:31.694Z,6.60
2022-09-28T17:53:36.705Z,6.95
2022-09-28T18:02:03.699Z,6.38
2022-09-28T18:06:18.147Z,7.32
2022-09-28T18:10:25.141Z,6.45
2022-09-28T18:14:31.300Z,6.03
2022-09-28T18:18:39.192Z,6.07
2022-09-28T18:22:45.721Z,6.68
2022-09-28T18:26:50.287Z,6.57
2022-09-28T18:30:55.334Z,6.93
2022-09-28T18:35:01.535Z,6.45
2022-09-28T18:39:06.676Z,8.70
2022-09-28T18:43:12.785Z,7.60
2022-09-28T18:47:16.125Z,7.77
2022-09-28T18:51:24.385Z,8.13
2022-09-28T18:55:31.934Z,7.28
2022-09-28T18:59:36.402Z,7.97
2022-09-28T19:03:41.593Z,7.00
2022-09-28T19:07:48.943Z,7.93
2022-09-28T19:11:54.453Z,6.55
2022-09-28T19:16:21.416Z,8.27
2022-09-28T19:20:26.793Z,6.70
2022-09-28T19:24:31.614Z,6.45
2022-09-28T19:28:43.198Z,6.82
2022-09-28T19:32:51.610Z,6.72
2022-09-28T19:36:57.981Z,6.47
2022-09-28T19:41:01.682Z,6.20
2022-09-28T19:45:37.939Z,5.80
2022-09-28T19:49:46.145Z,6.95
2022-09-28T19:53:52.522Z,7.72
2022-09-28T19:58:02.766Z,7.27
2022-09-28T20:02:07.270Z,7.30
2022-09-28T20:06:17.238Z,6.40
2022-09-28T20:10:25.503Z,7.70
2022-09-28T20:14:40.265Z,5.50
2022-09-28T20:18:53.136Z,6.70
2022-09-28T20:22:58.430Z,7.10
2022-09-28T20:27:02.541Z,7.18
2022-09-28T20:31:26.704Z,7.50
2022-09-28T20:35:34.874Z,7.03
2022-09-28T20:39:41.583Z,6.88
2022-09-28T20:43:53.955Z,6.53
2022-09-28T20:48:04.130Z,7.38
2022-09-28T20:52:07.644Z,6.30
2022-09-28T20:56:14.044Z,7.40
2022-09-28T21:00:17.485Z,8.40
2022-09-28T21:04:25.263Z,8.57
2022-09-28T21:08:29.008Z,7.45
2022-09-28T21:12:34.254Z,8.93
2022-09-28T21:16:40.830Z,8.60
2022-09-28T21:20:51.917Z,7.28
2022-09-28T21:24:56.719Z,7.40
2022-09-28T21:29:13.246Z,6.95
2022-09-28T21:33:16.037Z,6.20
2022-09-28T21:37:20.999Z,7.43
2022-09-28T21:41:25.402Z,6.22
2022-09-28T21:45:28.716Z,8.27
2022-09-28T21:49:32.924Z,8.25
2022-09-28T21:53:38.465Z,5.65
2022-09-28T21:57:41.115Z,4.65
2022-09-28T22:01:44.525Z,5.57
2022-09-28T22:05:52.190Z,6.25
2022-09-28T22:09:59.143Z,5.78
2022-09-28T22:14:02.372Z,7.68
2022-09-28T22:18:05.086Z,6.82
2022-09-28T22:22:09.836Z,7.35
2022-09-28T22:26:19.469Z,7.70
2022-09-28T22:30:22.131Z,6.65
2022-09-28T22:34:28.103Z,7.78
2022-09-28T22:38:32.742Z,5.57
2022-09-28T22:42:35.447Z,7.88
2022-09-28T22:46:38.242Z,8.60
2022-09-28T22:50:51.907Z,6.63
2022-09-28T22:54:56.074Z,4.75
2022-09-28T22:58:59.186Z,3.13
2022-09-28T23:03:03.741Z,2.28
2022-09-28T23:07:07.468Z,2.60
2022-09-28T23:11:10.585Z,2.67
2022-09-28T23:15:14.334Z,2.45
2022-09-28T23:19:18.597Z,2.17
2022-09-28T23:23:22.190Z,3.35
2022-09-28T23:27:25.328Z,2.42
2022-09-28T23:31:31.984Z,2.85
2022-09-28T23:39:37.345Z,2.05
2022-09-28T23:43:42.713Z,2.15
2022-09-28T23:47:45.845Z,2.42
2022-09-28T23:51:49.005Z,2.47
2022-09-28T23:55:52.443Z,2.72
2022-09-28T23:59:56.025Z,2.75
